sensor_id;sensor_type;location;lat;lon;timestamp;P1;durP1;ratioP1;P2;durP2;ratioP2
15398;SDS011;7797;51.428;6.756;2023-03-01T00:01:04;9.03;;;5.63;;
15398;SDS011;7797;51.428;6.756;2023-03-01T00:03:32;11.03;;;6.10;;
15398;SDS011;7797;51.428;6.756;2023-03-01T00:05:59;6.53;;;5.23;;
15398;SDS011;7797;51.428;6.756;2023-03-01T00:08:27;7.03;;;5.40;;
15398;SDS011;7797;51.428;6.756;2023-03-01T00:11:16;7.07;;;5.23;;
15398;SDS011;7797;51.428;6.756;2023-03-01T00:13:43;7.90;;;5.97;;
15398;SDS011;7797;51.428;6.756;2023-03-01T00:16:12;6.30;;;5.63;;
15398;SDS011;7797;51.428;6.756;2023-03-01T00:18:41;8.10;;;5.60;;
15398;SDS011;7797;51.428;6.756;2023-03-01T00:21:08;9.00;;;5.63;;
15398;SDS011;7797;51.428;6.756;2023-03-01T00:23:35;6.20;;;5.60;;
15398;SDS011;7797;51.428;6.756;2023-03-01T00:26:02;5.73;;;5.20;;
15398;SDS011;7797;51.428;6.756;2023-03-01T00:28:32;9.07;;;5.30;;
15398;SDS011;7797;51.428;6.756;2023-03-01T00:31:06;7.87;;;5.63;;
15398;SDS011;7797;51.428;6.756;2023-03-01T00:33:34;5.90;;;5.30;;
15398;SDS011;7797;51.428;6.756;2023-03-01T00:36:01;9.30;;;5.63;;
15398;SDS011;7797;51.428;6.756;2023-03-01T00:38:28;7.33;;;5.43;;
15398;SDS011;7797;51.428;6.756;2023-03-01T00:40:55;11.30;;;5.57;;
15398;SDS011;7797;51.428;6.756;2023-03-01T00:43:22;8.50;;;5.40;;
15398;SDS011;7797;51.428;6.756;2023-03-01T00:45:48;7.93;;;5.30;;
15398;SDS011;7797;51.428;6.756;2023-03-01T00:48:15;7.53;;;5.67;;
15398;SDS011;7797;51.428;6.756;2023-03-01T00:50:42;7.87;;;5.80;;
15398;SDS011;7797;51.428;6.756;2023-03-01T00:53:09;6.33;;;5.27;;
15398;SDS011;7797;51.428;6.756;2023-03-01T00:55:35;6.37;;;5.70;;
15398;SDS011;7797;51.428;6.756;2023-03-01T00:58:02;8.70;;;5.97;;
15398;SDS011;7797;51.428;6.756;2023-03-01T01:00:29;7.47;;;5.53;;
15398;SDS011;7797;51.428;6.756;2023-03-01T01:02:55;8.70;;;5.97;;
15398;SDS011;7797;51.428;6.756;2023-03-01T01:05:22;8.43;;;6.10;;
15398;SDS011;7797;51.428;6.756;2023-03-01T01:07:49;7.03;;;5.57;;
15398;SDS011;7797;51.428;6.756;2023-03-01T01:10:16;9.13;;;5.70;;
15398;SDS011;7797;51.428;6.756;2023-03-01T01:12:44;9.30;;;5.93;;
15398;SDS011;7797;51.428;6.756;2023-03-01T01:15:12;7.67;;;5.60;;
15398;SDS011;7797;51.428;6.756;2023-03-01T01:17:40;6.10;;;5.50;;
15398;SDS011;7797;51.428;6.756;2023-03-01T01:20:07;8.97;;;6.20;;
15398;SDS011;7797;51.428;6.756;2023-03-01T01:22:35;10.50;;;5.67;;
15398;SDS011;7797;51.428;6.756;2023-03-01T01:25:01;5.83;;;5.33;;
15398;SDS011;7797;51.428;6.756;2023-03-01T01:27:29;7.33;;;5.63;;
15398;SDS011;7797;51.428;6.756;2023-03-01T01:29:56;6.50;;;5.67;;
15398;SDS011;7797;51.428;6.756;2023-03-01T01:32:22;5.97;;;5.37;;
15398;SDS011;7797;51.428;6.756;2023-03-01T01:34:52;9.63;;;5.80;;
15398;SDS011;7797;51.428;6.756;2023-03-01T01:37:18;8.03;;;5.50;;
15398;SDS011;7797;51.428;6.756;2023-03-01T01:39:45;7.13;;;5.80;;
15398;SDS011;7797;51.428;6.756;2023-03-01T01:42:16;6.13;;;5.53;;
15398;SDS011;7797;51.428;6.756;2023-03-01T01:44:47;9.03;;;6.20;;
15398;SDS011;7797;51.428;6.756;2023-03-01T01:47:18;10.70;;;6.13;;
15398;SDS011;7797;51.428;6.756;2023-03-01T01:52:29;7.00;;;5.70;;
15398;SDS011;7797;51.428;6.756;2023-03-01T01:55:02;6.60;;;6.00;;
15398;SDS011;7797;51.428;6.756;2023-03-01T01:57:32;6.87;;;5.97;;
15398;SDS011;7797;51.428;6.756;2023-03-01T02:00:04;7.17;;;5.50;;
15398;SDS011;7797;51.428;6.756;2023-03-01T02:02:33;6.53;;;5.43;;
15398;SDS011;7797;51.428;6.756;2023-03-01T02:05:12;6.87;;;4.93;;
15398;SDS011;7797;51.428;6.756;2023-03-01T02:07:43;6.40;;;5.70;;
15398;SDS011;7797;51.428;6.756;2023-03-01T02:10:10;7.73;;;5.70;;
15398;SDS011;7797;51.428;6.756;2023-03-01T02:12:37;6.20;;;5.43;;
15398;SDS011;7797;51.428;6.756;2023-03-01T02:15:05;6.27;;;5.33;;
15398;SDS011;7797;51.428;6.756;2023-03-01T02:17:32;6.10;;;5.50;;
15398;SDS011;7797;51.428;6.756;2023-03-01T02:22:41;7.00;;;5.77;;
15398;SDS011;7797;51.428;6.756;2023-03-01T02:30:44;6.90;;;5.50;;
15398;SDS011;7797;51.428;6.756;2023-03-01T02:33:31;6.20;;;5.60;;
15398;SDS011;7797;51.428;6.756;2023-03-01T02:36:00;7.47;;;5.70;;
15398;SDS011;7797;51.428;6.756;2023-03-01T02:38:27;7.53;;;5.87;;
15398;SDS011;7797;51.428;6.756;2023-03-01T02:40:54;8.17;;;5.70;;
15398;SDS011;7797;51.428;6.756;2023-03-01T02:43:21;8.37;;;5.67;;
15398;SDS011;7797;51.428;6.756;2023-03-01T02:45:50;8.00;;;6.07;;
15398;SDS011;7797;51.428;6.756;2023-03-01T02:48:17;8.73;;;5.67;;
15398;SDS011;7797;51.428;6.756;2023-03-01T02:53:41;7.27;;;6.00;;
15398;SDS011;7797;51.428;6.756;2023-03-01T02:56:15;6.60;;;5.70;;
15398;SDS011;7797;51.428;6.756;2023-03-01T02:58:42;8.63;;;5.97;;
15398;SDS011;7797;51.428;6.756;2023-03-01T03:01:11;8.47;;;6.40;;
15398;SDS011;7797;51.428;6.756;2023-03-01T03:03:41;7.30;;;6.17;;
15398;SDS011;7797;51.428;6.756;2023-03-01T03:06:08;7.57;;;6.40;;
15398;SDS011;7797;51.428;6.756;2023-03-01T03:08:35;8.97;;;6.23;;
15398;SDS011;7797;51.428;6.756;2023-03-01T03:11:02;11.13;;;6.33;;
15398;SDS011;7797;51.428;6.756;2023-03-01T03:13:29;7.60;;;6.00;;
15398;SDS011;7797;51.428;6.756;2023-03-01T03:15:55;8.27;;;6.13;;
15398;SDS011;7797;51.428;6.756;2023-03-01T03:18:23;9.17;;;6.93;;
15398;SDS011;7797;51.428;6.756;2023-03-01T03:20:52;9.80;;;6.63;;
15398;SDS011;7797;51.428;6.756;2023-03-01T03:23:20;7.30;;;6.47;;
15398;SDS011;7797;51.428;6.756;2023-03-01T03:25:48;7.00;;;6.30;;
15398;SDS011;7797;51.428;6.756;2023-03-01T03:28:16;8.13;;;6.17;;
15398;SDS011;7797;51.428;6.756;2023-03-01T03:30:43;7.47;;;6.33;;
15398;SDS011;7797;51.428;6.756;2023-03-01T03:33:11;7.97;;;6.53;;
15398;SDS011;7797;51.428;6.756;2023-03-01T03:35:46;7.27;;;6.00;;
15398;SDS011;7797;51.428;6.756;2023-03-01T03:38:15;7.77;;;6.23;;
15398;SDS011;7797;51.428;6.756;2023-03-01T03:43:15;8.30;;;6.40;;
15398;SDS011;7797;51.428;6.756;2023-03-01T03:45:43;7.80;;;7.00;;
15398;SDS011;7797;51.428;6.756;2023-03-01T03:48:11;7.47;;;6.53;;
15398;SDS011;7797;51.428;6.756;2023-03-01T03:50:38;9.37;;;6.77;;
15398;SDS011;7797;51.428;6.756;2023-03-01T03:53:07;9.20;;;6.33;;
15398;SDS011;7797;51.428;6.756;2023-03-01T03:55:35;7.30;;;6.43;;
15398;SDS011;7797;51.428;6.756;2023-03-01T03:58:06;7.90;;;6.43;;
15398;SDS011;7797;51.428;6.756;2023-03-01T04:00:35;9.00;;;6.60;;
15398;SDS011;7797;51.428;6.756;2023-03-01T04:03:03;8.07;;;6.23;;
15398;SDS011;7797;51.428;6.756;2023-03-01T04:05:31;7.87;;;6.70;;
15398;SDS011;7797;51.428;6.756;2023-03-01T04:07:57;8.77;;;6.20;;
15398;SDS011;7797;51.428;6.756;2023-03-01T04:10:28;7.23;;;6.53;;
15398;SDS011;7797;51.428;6.756;2023-03-01T04:12:56;9.33;;;7.00;;
15398;SDS011;7797;51.428;6.756;2023-03-01T04:15:24;8.47;;;7.03;;
15398;SDS011;7797;51.428;6.756;2023-03-01T04:17:51;7.30;;;6.60;;
15398;SDS011;7797;51.428;6.756;2023-03-01T04:20:23;12.60;;;7.10;;
15398;SDS011;7797;51.428;6.756;2023-03-01T04:23:08;8.70;;;6.30;;
15398;SDS011;7797;51.428;6.756;2023-03-01T04:25:48;7.37;;;6.30;;
15398;SDS011;7797;51.428;6.756;2023-03-01T04:28:27;8.47;;;6.60;;
15398;SDS011;7797;51.428;6.756;2023-03-01T04:31:01;7.10;;;6.40;;
15398;SDS011;7797;51.428;6.756;2023-03-01T04:33:40;9.13;;;6.27;;
15398;SDS011;7797;51.428;6.756;2023-03-01T04:36:10;9.50;;;6.20;;
15398;SDS011;7797;51.428;6.756;2023-03-01T04:38:38;10.90;;;6.67;;
15398;SDS011;7797;51.428;6.756;2023-03-01T04:41:06;9.10;;;6.73;;
15398;SDS011;7797;51.428;6.756;2023-03-01T04:43:34;9.17;;;6.60;;
15398;SDS011;7797;51.428;6.756;2023-03-01T04:46:02;9.07;;;7.07;;
15398;SDS011;7797;51.428;6.756;2023-03-01T04:48:30;7.83;;;6.90;;
15398;SDS011;7797;51.428;6.756;2023-03-01T04:50:58;8.00;;;6.43;;
15398;SDS011;7797;51.428;6.756;2023-03-01T04:53:26;10.00;;;7.10;;
15398;SDS011;7797;51.428;6.756;2023-03-01T04:55:54;9.03;;;7.13;;
15398;SDS011;7797;51.428;6.756;2023-03-01T04:58:26;9.70;;;7.00;;
15398;SDS011;7797;51.428;6.756;2023-03-01T05:00:53;7.60;;;6.40;;
15398;SDS011;7797;51.428;6.756;2023-03-01T05:03:20;8.47;;;6.83;;
15398;SDS011;7797;51.428;6.756;2023-03-01T05:05:48;8.80;;;6.93;;
15398;SDS011;7797;51.428;6.756;2023-03-01T05:08:16;8.27;;;6.63;;
15398;SDS011;7797;51.428;6.756;2023-03-01T05:10:50;10.27;;;7.50;;
15398;SDS011;7797;51.428;6.756;2023-03-01T05:13:18;8.20;;;6.90;;
15398;SDS011;7797;51.428;6.756;2023-03-01T05:15:58;8.93;;;6.70;;
15398;SDS011;7797;51.428;6.756;2023-03-01T05:18:27;8.93;;;6.97;;
15398;SDS011;7797;51.428;6.756;2023-03-01T05:21:01;10.83;;;6.80;;
15398;SDS011;7797;51.428;6.756;2023-03-01T05:23:31;7.63;;;6.40;;
15398;SDS011;7797;51.428;6.756;2023-03-01T05:25:58;10.53;;;7.10;;
15398;SDS011;7797;51.428;6.756;2023-03-01T05:28:26;10.73;;;6.90;;
15398;SDS011;7797;51.428;6.756;2023-03-01T05:30:54;8.77;;;6.43;;
15398;SDS011;7797;51.428;6.756;2023-03-01T05:33:21;8.60;;;6.77;;
15398;SDS011;7797;51.428;6.756;2023-03-01T05:35:49;8.57;;;6.47;;
15398;SDS011;7797;51.428;6.756;2023-03-01T05:38:16;8.07;;;6.87;;
15398;SDS011;7797;51.428;6.756;2023-03-01T05:40:43;11.00;;;6.70;;
15398;SDS011;7797;51.428;6.756;2023-03-01T05:43:11;7.73;;;6.60;;
15398;SDS011;7797;51.428;6.756;2023-03-01T05:45:39;7.10;;;6.40;;
15398;SDS011;7797;51.428;6.756;2023-03-01T05:48:07;8.70;;;6.83;;
15398;SDS011;7797;51.428;6.756;2023-03-01T05:50:35;9.10;;;7.03;;
15398;SDS011;7797;51.428;6.756;2023-03-01T05:53:09;8.47;;;6.80;;
15398;SDS011;7797;51.428;6.756;2023-03-01T05:55:38;8.70;;;7.10;;
15398;SDS011;7797;51.428;6.756;2023-03-01T05:58:06;7.97;;;6.03;;
15398;SDS011;7797;51.428;6.756;2023-03-01T06:00:35;8.07;;;6.83;;
15398;SDS011;7797;51.428;6.756;2023-03-01T06:03:02;7.97;;;6.80;;
15398;SDS011;7797;51.428;6.756;2023-03-01T06:05:35;10.33;;;7.10;;
15398;SDS011;7797;51.428;6.756;2023-03-01T06:08:02;10.90;;;7.20;;
15398;SDS011;7797;51.428;6.756;2023-03-01T06:10:29;8.00;;;7.07;;
15398;SDS011;7797;51.428;6.756;2023-03-01T06:12:56;11.40;;;7.20;;
15398;SDS011;7797;51.428;6.756;2023-03-01T06:15:23;10.57;;;7.43;;
15398;SDS011;7797;51.428;6.756;2023-03-01T06:17:51;8.93;;;7.27;;
15398;SDS011;7797;51.428;6.756;2023-03-01T06:20:22;7.90;;;6.60;;
15398;SDS011;7797;51.428;6.756;2023-03-01T06:22:57;9.23;;;7.33;;
15398;SDS011;7797;51.428;6.756;2023-03-01T06:25:24;8.03;;;7.23;;
15398;SDS011;7797;51.428;6.756;2023-03-01T06:27:52;8.10;;;7.27;;
15398;SDS011;7797;51.428;6.756;2023-03-01T06:30:19;10.03;;;7.80;;
15398;SDS011;7797;51.428;6.756;2023-03-01T06:32:47;11.23;;;7.60;;
15398;SDS011;7797;51.428;6.756;2023-03-01T06:35:15;10.17;;;7.23;;
15398;SDS011;7797;51.428;6.756;2023-03-01T06:37:44;12.57;;;6.93;;
15398;SDS011;7797;51.428;6.756;2023-03-01T06:40:12;9.03;;;7.13;;
15398;SDS011;7797;51.428;6.756;2023-03-01T06:42:48;8.63;;;7.30;;
15398;SDS011;7797;51.428;6.756;2023-03-01T06:45:16;8.73;;;6.60;;
15398;SDS011;7797;51.428;6.756;2023-03-01T06:47:44;9.43;;;7.37;;
15398;SDS011;7797;51.428;6.756;2023-03-01T06:50:11;7.90;;;6.43;;
15398;SDS011;7797;51.428;6.756;2023-03-01T06:52:38;8.80;;;7.13;;
15398;SDS011;7797;51.428;6.756;2023-03-01T06:55:05;9.10;;;7.03;;
15398;SDS011;7797;51.428;6.756;2023-03-01T06:57:32;10.50;;;7.27;;
15398;SDS011;7797;51.428;6.756;2023-03-01T06:59:59;7.47;;;6.67;;
15398;SDS011;7797;51.428;6.756;2023-03-01T07:02:26;9.50;;;7.27;;
15398;SDS011;7797;51.428;6.756;2023-03-01T07:04:53;8.63;;;7.00;;
15398;SDS011;7797;51.428;6.756;2023-03-01T07:07:19;7.60;;;6.70;;
15398;SDS011;7797;51.428;6.756;2023-03-01T07:09:46;8.33;;;6.90;;
15398;SDS011;7797;51.428;6.756;2023-03-01T07:12:15;9.30;;;6.97;;
15398;SDS011;7797;51.428;6.756;2023-03-01T07:14:43;10.27;;;7.60;;
15398;SDS011;7797;51.428;6.756;2023-03-01T07:17:10;9.70;;;8.00;;
15398;SDS011;7797;51.428;6.756;2023-03-01T07:19:36;10.37;;;7.07;;
15398;SDS011;7797;51.428;6.756;2023-03-01T07:22:03;8.77;;;7.10;;
15398;SDS011;7797;51.428;6.756;2023-03-01T07:24:30;9.67;;;6.77;;
15398;SDS011;7797;51.428;6.756;2023-03-01T07:26:57;14.20;;;7.47;;
15398;SDS011;7797;51.428;6.756;2023-03-01T07:29:24;11.00;;;7.33;;
15398;SDS011;7797;51.428;6.756;2023-03-01T07:31:50;9.13;;;7.27;;
15398;SDS011;7797;51.428;6.756;2023-03-01T07:34:17;13.90;;;7.77;;
15398;SDS011;7797;51.428;6.756;2023-03-01T07:36:49;10.27;;;7.40;;
15398;SDS011;7797;51.428;6.756;2023-03-01T07:39:15;11.67;;;7.87;;
15398;SDS011;7797;51.428;6.756;2023-03-01T07:41:44;9.00;;;7.47;;
15398;SDS011;7797;51.428;6.756;2023-03-01T07:44:11;8.60;;;7.20;;
15398;SDS011;7797;51.428;6.756;2023-03-01T07:46:38;11.17;;;7.87;;
15398;SDS011;7797;51.428;6.756;2023-03-01T07:49:04;10.10;;;7.60;;
15398;SDS011;7797;51.428;6.756;2023-03-01T07:51:31;9.60;;;7.33;;
15398;SDS011;7797;51.428;6.756;2023-03-01T07:53:58;8.50;;;7.30;;
15398;SDS011;7797;51.428;6.756;2023-03-01T07:56:25;10.50;;;7.87;;
15398;SDS011;7797;51.428;6.756;2023-03-01T07:58:51;10.63;;;7.90;;
15398;SDS011;7797;51.428;6.756;2023-03-01T08:01:19;12.43;;;8.27;;
15398;SDS011;7797;51.428;6.756;2023-03-01T08:03:47;11.17;;;7.83;;
15398;SDS011;7797;51.428;6.756;2023-03-01T08:06:16;11.30;;;7.33;;
15398;SDS011;7797;51.428;6.756;2023-03-01T08:08:44;10.53;;;7.73;;
15398;SDS011;7797;51.428;6.756;2023-03-01T08:11:11;10.60;;;7.90;;
15398;SDS011;7797;51.428;6.756;2023-03-01T08:13:40;8.73;;;7.23;;
15398;SDS011;7797;51.428;6.756;2023-03-01T08:16:09;11.60;;;6.93;;
15398;SDS011;7797;51.428;6.756;2023-03-01T08:18:37;9.67;;;7.50;;
15398;SDS011;7797;51.428;6.756;2023-03-01T08:21:05;11.57;;;7.93;;
15398;SDS011;7797;51.428;6.756;2023-03-01T08:23:33;9.33;;;7.60;;
15398;SDS011;7797;51.428;6.756;2023-03-01T08:26:10;9.37;;;7.80;;
15398;SDS011;7797;51.428;6.756;2023-03-01T08:28:44;11.53;;;7.43;;
15398;SDS011;7797;51.428;6.756;2023-03-01T08:31:31;11.13;;;7.80;;
15398;SDS011;7797;51.428;6.756;2023-03-01T08:34:05;8.20;;;7.40;;
15398;SDS011;7797;51.428;6.756;2023-03-01T08:36:38;9.53;;;7.17;;
15398;SDS011;7797;51.428;6.756;2023-03-01T08:39:07;9.17;;;7.87;;
15398;SDS011;7797;51.428;6.756;2023-03-01T08:41:34;11.57;;;7.20;;
15398;SDS011;7797;51.428;6.756;2023-03-01T08:44:02;11.57;;;8.03;;
15398;SDS011;7797;51.428;6.756;2023-03-01T08:46:31;8.40;;;6.93;;
15398;SDS011;7797;51.428;6.756;2023-03-01T08:48:59;11.80;;;7.20;;
15398;SDS011;7797;51.428;6.756;2023-03-01T08:51:26;11.40;;;7.20;;
15398;SDS011;7797;51.428;6.756;2023-03-01T08:53:53;14.10;;;7.70;;
15398;SDS011;7797;51.428;6.756;2023-03-01T08:56:21;12.07;;;7.50;;
15398;SDS011;7797;51.428;6.756;2023-03-01T08:58:48;8.87;;;7.03;;
15398;SDS011;7797;51.428;6.756;2023-03-01T09:01:17;10.30;;;7.57;;
15398;SDS011;7797;51.428;6.756;2023-03-01T09:03:45;7.20;;;6.40;;
15398;SDS011;7797;51.428;6.756;2023-03-01T09:06:12;11.40;;;6.77;;
15398;SDS011;7797;51.428;6.756;2023-03-01T09:08:44;8.70;;;6.43;;
15398;SDS011;7797;51.428;6.756;2023-03-01T09:11:13;8.37;;;6.43;;
15398;SDS011;7797;51.428;6.756;2023-03-01T09:13:42;8.30;;;6.60;;
15398;SDS011;7797;51.428;6.756;2023-03-01T09:16:10;9.83;;;7.30;;
15398;SDS011;7797;51.428;6.756;2023-03-01T09:18:38;9.33;;;6.70;;
15398;SDS011;7797;51.428;6.756;2023-03-01T09:21:05;10.47;;;6.77;;
15398;SDS011;7797;51.428;6.756;2023-03-01T09:23:37;10.67;;;6.13;;
15398;SDS011;7797;51.428;6.756;2023-03-01T09:26:09;8.30;;;6.43;;
15398;SDS011;7797;51.428;6.756;2023-03-01T09:28:37;9.10;;;6.57;;
15398;SDS011;7797;51.428;6.756;2023-03-01T09:31:04;10.43;;;6.67;;
15398;SDS011;7797;51.428;6.756;2023-03-01T09:33:47;8.23;;;6.73;;
15398;SDS011;7797;51.428;6.756;2023-03-01T09:36:19;7.83;;;6.13;;
15398;SDS011;7797;51.428;6.756;2023-03-01T09:39:03;9.60;;;6.60;;
15398;SDS011;7797;51.428;6.756;2023-03-01T09:46:48;8.93;;;6.63;;
15398;SDS011;7797;51.428;6.756;2023-03-01T09:49:19;9.83;;;6.70;;
15398;SDS011;7797;51.428;6.756;2023-03-01T09:51:59;8.57;;;6.80;;
15398;SDS011;7797;51.428;6.756;2023-03-01T09:54:30;10.90;;;6.60;;
15398;SDS011;7797;51.428;6.756;2023-03-01T09:57:03;8.03;;;6.73;;
15398;SDS011;7797;51.428;6.756;2023-03-01T09:59:37;7.83;;;6.60;;
15398;SDS011;7797;51.428;6.756;2023-03-01T10:04:51;7.53;;;6.80;;
15398;SDS011;7797;51.428;6.756;2023-03-01T10:07:27;10.47;;;7.00;;
15398;SDS011;7797;51.428;6.756;2023-03-01T10:09:59;9.23;;;6.50;;
15398;SDS011;7797;51.428;6.756;2023-03-01T10:12:27;9.80;;;6.47;;
15398;SDS011;7797;51.428;6.756;2023-03-01T10:15:07;7.27;;;6.20;;
15398;SDS011;7797;51.428;6.756;2023-03-01T10:17:52;6.97;;;6.13;;
15398;SDS011;7797;51.428;6.756;2023-03-01T10:20:22;6.83;;;6.10;;
15398;SDS011;7797;51.428;6.756;2023-03-01T10:22:51;10.27;;;6.47;;
15398;SDS011;7797;51.428;6.756;2023-03-01T10:28:12;9.43;;;6.17;;
15398;SDS011;7797;51.428;6.756;2023-03-01T10:30:44;9.67;;;6.80;;
15398;SDS011;7797;51.428;6.756;2023-03-01T10:33:17;7.07;;;5.93;;
15398;SDS011;7797;51.428;6.756;2023-03-01T10:35:48;7.53;;;6.10;;
15398;SDS011;7797;51.428;6.756;2023-03-01T10:38:16;8.93;;;6.10;;
15398;SDS011;7797;51.428;6.756;2023-03-01T10:40:54;8.10;;;6.20;;
15398;SDS011;7797;51.428;6.756;2023-03-01T10:43:40;8.17;;;5.93;;
15398;SDS011;7797;51.428;6.756;2023-03-01T10:49:07;8.10;;;6.43;;
15398;SDS011;7797;51.428;6.756;2023-03-01T10:51:49;8.60;;;6.17;;
15398;SDS011;7797;51.428;6.756;2023-03-01T10:54:19;8.07;;;6.30;;
15398;SDS011;7797;51.428;6.756;2023-03-01T10:56:47;8.17;;;6.00;;
15398;SDS011;7797;51.428;6.756;2023-03-01T10:59:20;6.30;;;5.50;;
15398;SDS011;7797;51.428;6.756;2023-03-01T11:02:12;6.03;;;5.33;;
15398;SDS011;7797;51.428;6.756;2023-03-01T11:04:58;6.83;;;5.13;;
15398;SDS011;7797;51.428;6.756;2023-03-01T11:07:49;8.03;;;5.47;;
15398;SDS011;7797;51.428;6.756;2023-03-01T11:10:17;8.37;;;5.97;;
15398;SDS011;7797;51.428;6.756;2023-03-01T11:12:50;7.83;;;5.70;;
15398;SDS011;7797;51.428;6.756;2023-03-01T11:15:27;6.57;;;5.57;;
15398;SDS011;7797;51.428;6.756;2023-03-01T11:17:55;7.63;;;5.47;;
15398;SDS011;7797;51.428;6.756;2023-03-01T11:20:39;7.40;;;5.30;;
15398;SDS011;7797;51.428;6.756;2023-03-01T11:23:13;6.00;;;5.07;;
15398;SDS011;7797;51.428;6.756;2023-03-01T11:25:44;6.07;;;4.80;;
15398;SDS011;7797;51.428;6.756;2023-03-01T11:28:16;7.07;;;5.37;;
15398;SDS011;7797;51.428;6.756;2023-03-01T11:36:49;6.60;;;5.03;;
15398;SDS011;7797;51.428;6.756;2023-03-01T11:38:50;6.17;;;4.77;;
15398;SDS011;7797;51.428;6.756;2023-03-01T11:41:18;7.17;;;5.43;;
15398;SDS011;7797;51.428;6.756;2023-03-01T11:52:12;7.70;;;5.20;;
15398;SDS011;7797;51.428;6.756;2023-03-01T12:03:37;6.27;;;4.97;;
15398;SDS011;7797;51.428;6.756;2023-03-01T12:14:55;7.07;;;5.10;;
15398;SDS011;7797;51.428;6.756;2023-03-01T12:26:01;6.37;;;5.13;;
15398;SDS011;7797;51.428;6.756;2023-03-01T12:33:45;5.90;;;5.40;;
15398;SDS011;7797;51.428;6.756;2023-03-01T12:36:19;6.53;;;5.30;;
15398;SDS011;7797;51.428;6.756;2023-03-01T12:39:11;7.53;;;5.27;;
15398;SDS011;7797;51.428;6.756;2023-03-01T12:42:12;5.87;;;5.27;;
15398;SDS011;7797;51.428;6.756;2023-03-01T12:44:56;6.17;;;5.03;;
15398;SDS011;7797;51.428;6.756;2023-03-01T12:50:38;7.37;;;5.13;;
15398;SDS011;7797;51.428;6.756;2023-03-01T12:53:20;5.03;;;4.53;;
15398;SDS011;7797;51.428;6.756;2023-03-01T12:55:50;5.90;;;5.30;;
15398;SDS011;7797;51.428;6.756;2023-03-01T13:06:38;7.57;;;5.80;;
15398;SDS011;7797;51.428;6.756;2023-03-01T13:11:50;7.90;;;5.40;;
15398;SDS011;7797;51.428;6.756;2023-03-01T13:16:47;7.63;;;5.03;;
15398;SDS011;7797;51.428;6.756;2023-03-01T13:19:21;8.23;;;5.40;;
15398;SDS011;7797;51.428;6.756;2023-03-01T13:21:52;7.13;;;5.13;;
15398;SDS011;7797;51.428;6.756;2023-03-01T13:24:27;5.30;;;4.80;;
15398;SDS011;7797;51.428;6.756;2023-03-01T13:32:26;5.43;;;4.93;;
15398;SDS011;7797;51.428;6.756;2023-03-01T13:37:46;6.40;;;4.77;;
15398;SDS011;7797;51.428;6.756;2023-03-01T13:42:46;7.87;;;5.20;;
15398;SDS011;7797;51.428;6.756;2023-03-01T13:45:40;5.97;;;5.37;;
15398;SDS011;7797;51.428;6.756;2023-03-01T13:48:15;5.70;;;5.17;;
15398;SDS011;7797;51.428;6.756;2023-03-01T13:50:47;7.40;;;5.60;;
15398;SDS011;7797;51.428;6.756;2023-03-01T13:53:29;7.67;;;5.20;;
15398;SDS011;7797;51.428;6.756;2023-03-01T13:56:01;6.93;;;5.90;;
15398;SDS011;7797;51.428;6.756;2023-03-01T13:58:42;8.50;;;5.40;;
15398;SDS011;7797;51.428;6.756;2023-03-01T14:01:20;8.57;;;5.43;;
15398;SDS011;7797;51.428;6.756;2023-03-01T14:03:49;8.17;;;5.40;;
15398;SDS011;7797;51.428;6.756;2023-03-01T14:06:19;8.13;;;5.37;;
15398;SDS011;7797;51.428;6.756;2023-03-01T14:08:48;7.30;;;5.87;;
15398;SDS011;7797;51.428;6.756;2023-03-01T14:11:33;8.27;;;5.03;;
15398;SDS011;7797;51.428;6.756;2023-03-01T14:14:10;7.23;;;5.33;;
15398;SDS011;7797;51.428;6.756;2023-03-01T14:22:45;7.10;;;5.30;;
15398;SDS011;7797;51.428;6.756;2023-03-01T14:25:23;6.83;;;5.80;;
15398;SDS011;7797;51.428;6.756;2023-03-01T14:30:26;6.97;;;5.77;;
15398;SDS011;7797;51.428;6.756;2023-03-01T14:33:01;6.70;;;5.40;;
15398;SDS011;7797;51.428;6.756;2023-03-01T14:35:30;6.07;;;5.47;;
15398;SDS011;7797;51.428;6.756;2023-03-01T14:37:58;7.83;;;5.40;;
15398;SDS011;7797;51.428;6.756;2023-03-01T14:40:34;10.50;;;6.20;;
15398;SDS011;7797;51.428;6.756;2023-03-01T14:43:09;7.50;;;5.43;;
15398;SDS011;7797;51.428;6.756;2023-03-01T14:45:38;6.57;;;5.40;;
15398;SDS011;7797;51.428;6.756;2023-03-01T14:48:05;7.93;;;6.07;;
15398;SDS011;7797;51.428;6.756;2023-03-01T14:50:34;10.07;;;6.20;;
15398;SDS011;7797;51.428;6.756;2023-03-01T14:53:02;7.57;;;6.10;;
15398;SDS011;7797;51.428;6.756;2023-03-01T14:55:33;8.17;;;6.20;;
15398;SDS011;7797;51.428;6.756;2023-03-01T14:58:11;7.23;;;5.80;;
15398;SDS011;7797;51.428;6.756;2023-03-01T15:00:42;9.50;;;6.80;;
15398;SDS011;7797;51.428;6.756;2023-03-01T15:03:34;6.97;;;5.73;;
15398;SDS011;7797;51.428;6.756;2023-03-01T15:06:05;8.00;;;5.83;;
15398;SDS011;7797;51.428;6.756;2023-03-01T15:08:33;9.10;;;6.43;;
15398;SDS011;7797;51.428;6.756;2023-03-01T15:13:51;7.63;;;6.60;;
15398;SDS011;7797;51.428;6.756;2023-03-01T15:16:19;7.10;;;6.27;;
15398;SDS011;7797;51.428;6.756;2023-03-01T15:18:55;8.30;;;6.10;;
15398;SDS011;7797;51.428;6.756;2023-03-01T15:21:27;7.80;;;6.70;;
15398;SDS011;7797;51.428;6.756;2023-03-01T15:24:20;10.77;;;6.53;;
15398;SDS011;7797;51.428;6.756;2023-03-01T15:29:25;8.03;;;6.07;;
15398;SDS011;7797;51.428;6.756;2023-03-01T15:32:00;8.77;;;6.00;;
15398;SDS011;7797;51.428;6.756;2023-03-01T15:34:34;9.30;;;6.43;;
15398;SDS011;7797;51.428;6.756;2023-03-01T15:37:04;8.17;;;6.17;;
15398;SDS011;7797;51.428;6.756;2023-03-01T15:39:33;6.70;;;5.70;;
15398;SDS011;7797;51.428;6.756;2023-03-01T15:45:06;6.87;;;5.80;;
15398;SDS011;7797;51.428;6.756;2023-03-01T15:47:38;6.30;;;5.70;;
15398;SDS011;7797;51.428;6.756;2023-03-01T15:50:16;9.23;;;6.00;;
15398;SDS011;7797;51.428;6.756;2023-03-01T15:52:45;7.70;;;5.73;;
15398;SDS011;7797;51.428;6.756;2023-03-01T15:55:16;6.43;;;5.40;;
15398;SDS011;7797;51.428;6.756;2023-03-01T15:57:44;8.03;;;5.87;;
15398;SDS011;7797;51.428;6.756;2023-03-01T16:00:12;7.03;;;5.90;;
15398;SDS011;7797;51.428;6.756;2023-03-01T16:02:40;6.80;;;5.63;;
15398;SDS011;7797;51.428;6.756;2023-03-01T16:05:41;8.87;;;5.70;;
15398;SDS011;7797;51.428;6.756;2023-03-01T16:08:07;6.93;;;6.00;;
15398;SDS011;7797;51.428;6.756;2023-03-01T16:10:33;5.97;;;5.43;;
15398;SDS011;7797;51.428;6.756;2023-03-01T16:13:01;8.07;;;5.63;;
15398;SDS011;7797;51.428;6.756;2023-03-01T16:15:29;6.73;;;5.73;;
15398;SDS011;7797;51.428;6.756;2023-03-01T16:17:58;8.83;;;6.20;;
15398;SDS011;7797;51.428;6.756;2023-03-01T16:20:25;8.80;;;5.70;;
15398;SDS011;7797;51.428;6.756;2023-03-01T16:23:06;6.97;;;5.80;;
15398;SDS011;7797;51.428;6.756;2023-03-01T16:25:34;6.00;;;5.40;;
15398;SDS011;7797;51.428;6.756;2023-03-01T16:28:01;7.20;;;5.90;;
15398;SDS011;7797;51.428;6.756;2023-03-01T16:30:31;9.13;;;5.77;;
15398;SDS011;7797;51.428;6.756;2023-03-01T16:32:59;7.80;;;5.97;;
15398;SDS011;7797;51.428;6.756;2023-03-01T16:35:26;6.93;;;5.63;;
15398;SDS011;7797;51.428;6.756;2023-03-01T16:37:53;8.57;;;5.83;;
15398;SDS011;7797;51.428;6.756;2023-03-01T16:40:21;6.57;;;5.63;;
15398;SDS011;7797;51.428;6.756;2023-03-01T16:42:51;7.30;;;5.80;;
15398;SDS011;7797;51.428;6.756;2023-03-01T16:45:18;6.80;;;5.63;;
15398;SDS011;7797;51.428;6.756;2023-03-01T16:47:54;6.10;;;5.50;;
15398;SDS011;7797;51.428;6.756;2023-03-01T16:50:21;8.43;;;5.80;;
15398;SDS011;7797;51.428;6.756;2023-03-01T16:52:48;7.70;;;6.20;;
15398;SDS011;7797;51.428;6.756;2023-03-01T16:55:15;7.93;;;5.60;;
15398;SDS011;7797;51.428;6.756;2023-03-01T16:57:42;6.93;;;6.20;;
15398;SDS011;7797;51.428;6.756;2023-03-01T17:00:09;6.67;;;5.17;;
15398;SDS011;7797;51.428;6.756;2023-03-01T17:02:37;7.53;;;5.93;;
15398;SDS011;7797;51.428;6.756;2023-03-01T17:05:04;8.27;;;5.53;;
15398;SDS011;7797;51.428;6.756;2023-03-01T17:07:32;8.70;;;5.90;;
15398;SDS011;7797;51.428;6.756;2023-03-01T17:10:01;8.13;;;5.67;;
15398;SDS011;7797;51.428;6.756;2023-03-01T17:12:29;7.50;;;6.10;;
15398;SDS011;7797;51.428;6.756;2023-03-01T17:15:00;8.53;;;6.30;;
15398;SDS011;7797;51.428;6.756;2023-03-01T17:17:27;7.50;;;5.67;;
15398;SDS011;7797;51.428;6.756;2023-03-01T17:19:54;7.43;;;5.60;;